sensor_id;sensor_type;location;lat;lon;timestamp;P1;durP1;ratioP1;P2;durP2;ratioP2
74503;SDS011;62988;55.776;37.544;2022-12-29T00:04:48;7.53;;;1.42;;
74503;SDS011;62988;55.776;37.544;2022-12-29T00:09:59;4.10;;;0.82;;
74503;SDS011;62988;55.776;37.544;2022-12-29T00:12:25;3.08;;;0.60;;
74503;SDS011;62988;55.776;37.544;2022-12-29T00:18:12;5.15;;;0.82;;
74503;SDS011;62988;55.776;37.544;2022-12-29T00:23:42;1.77;;;0.43;;
74503;SDS011;62988;55.776;37.544;2022-12-29T00:26:26;4.18;;;0.88;;
74503;SDS011;62988;55.776;37.544;2022-12-29T00:29:10;4.57;;;0.82;;
74503;SDS011;62988;55.776;37.544;2022-12-29T00:34:57;1.58;;;0.43;;
74503;SDS011;62988;55.776;37.544;2022-12-29T00:37:36;3.38;;;0.70;;
74503;SDS011;62988;55.776;37.544;2022-12-29T00:46:33;4.05;;;0.63;;
74503;SDS011;62988;55.776;37.544;2022-12-29T00:52:11;2.90;;;0.75;;
74503;SDS011;62988;55.776;37.544;2022-12-29T01:00:24;3.33;;;0.63;;
74503;SDS011;62988;55.776;37.544;2022-12-29T01:06:11;5.07;;;0.95;;
74503;SDS011;62988;55.776;37.544;2022-12-29T01:08:37;2.67;;;0.73;;
74503;SDS011;62988;55.776;37.544;2022-12-29T01:17:08;1.80;;;0.60;;
74503;SDS011;62988;55.776;37.544;2022-12-29T01:25:03;2.90;;;0.70;;
74503;SDS011;62988;55.776;37.544;2022-12-29T01:27:30;4.60;;;0.60;;
74503;SDS011;62988;55.776;37.544;2022-12-29T01:30:14;2.65;;;0.65;;
74503;SDS011;62988;55.776;37.544;2022-12-29T01:32:39;5.70;;;0.70;;
74503;SDS011;62988;55.776;37.544;2022-12-29T01:41:26;1.50;;;0.40;;
74503;SDS011;62988;55.776;37.544;2022-12-29T01:50:27;1.73;;;0.52;;
74503;SDS011;62988;55.776;37.544;2022-12-29T01:53:16;0.73;;;0.30;;
74503;SDS011;62988;55.776;37.544;2022-12-29T01:58:46;2.08;;;0.50;;
74503;SDS011;62988;55.776;37.544;2022-12-29T02:01:14;4.13;;;0.80;;
74503;SDS011;62988;55.776;37.544;2022-12-29T02:03:43;6.13;;;1.10;;
74503;SDS011;62988;55.776;37.544;2022-12-29T02:09:12;3.58;;;0.80;;
74503;SDS011;62988;55.776;37.544;2022-12-29T02:11:37;4.57;;;0.73;;
74503;SDS011;62988;55.776;37.544;2022-12-29T02:14:22;2.25;;;0.57;;
74503;SDS011;62988;55.776;37.544;2022-12-29T02:25:33;1.98;;;0.68;;
74503;SDS011;62988;55.776;37.544;2022-12-29T02:40:24;1.20;;;0.43;;
74503;SDS011;62988;55.776;37.544;2022-12-29T02:52:39;2.10;;;0.75;;
74503;SDS011;62988;55.776;37.544;2022-12-29T02:55:01;3.88;;;0.52;;
74503;SDS011;62988;55.776;37.544;2022-12-29T03:05:41;5.70;;;1.50;;
74503;SDS011;62988;55.776;37.544;2022-12-29T03:18:06;1.25;;;0.55;;
74503;SDS011;62988;55.776;37.544;2022-12-29T03:23:31;3.67;;;0.88;;
74503;SDS011;62988;55.776;37.544;2022-12-29T03:25:59;4.65;;;1.40;;
74503;SDS011;62988;55.776;37.544;2022-12-29T03:29:00;6.18;;;0.90;;
74503;SDS011;62988;55.776;37.544;2022-12-29T03:31:27;5.03;;;0.70;;
74503;SDS011;62988;55.776;37.544;2022-12-29T03:33:53;3.92;;;0.85;;
74503;SDS011;62988;55.776;37.544;2022-12-29T03:36:23;3.40;;;0.77;;
74503;SDS011;62988;55.776;37.544;2022-12-29T03:38:59;1.75;;;0.60;;
74503;SDS011;62988;55.776;37.544;2022-12-29T03:44:15;2.78;;;0.70;;
74503;SDS011;62988;55.776;37.544;2022-12-29T03:46:59;2.60;;;0.55;;
74503;SDS011;62988;55.776;37.544;2022-12-29T03:49:25;6.03;;;1.10;;
74503;SDS011;62988;55.776;37.544;2022-12-29T03:51:50;2.92;;;0.60;;
74503;SDS011;62988;55.776;37.544;2022-12-29T04:03:06;10.70;;;1.30;;
74503;SDS011;62988;55.776;37.544;2022-12-29T04:05:32;3.55;;;0.60;;
74503;SDS011;62988;55.776;37.544;2022-12-29T04:08:16;1.80;;;0.65;;
74503;SDS011;62988;55.776;37.544;2022-12-29T04:10:41;4.80;;;0.98;;
74503;SDS011;62988;55.776;37.544;2022-12-29T04:13:25;4.88;;;1.13;;
74503;SDS011;62988;55.776;37.544;2022-12-29T04:15:51;8.88;;;1.38;;
74503;SDS011;62988;55.776;37.544;2022-12-29T04:21:00;4.38;;;0.85;;
74503;SDS011;62988;55.776;37.544;2022-12-29T04:26:11;4.07;;;1.00;;
74503;SDS011;62988;55.776;37.544;2022-12-29T04:28:37;4.25;;;0.95;;
74503;SDS011;62988;55.776;37.544;2022-12-29T04:31:03;5.60;;;0.90;;
74503;SDS011;62988;55.776;37.544;2022-12-29T04:33:29;5.65;;;1.20;;
74503;SDS011;62988;55.776;37.544;2022-12-29T04:35:55;5.97;;;0.98;;
74503;SDS011;62988;55.776;37.544;2022-12-29T04:38:21;3.85;;;1.15;;
74503;SDS011;62988;55.776;37.544;2022-12-29T04:40:48;4.43;;;1.10;;
74503;SDS011;62988;55.776;37.544;2022-12-29T04:43:32;4.70;;;1.25;;
74503;SDS011;62988;55.776;37.544;2022-12-29T04:48:42;4.90;;;1.50;;
74503;SDS011;62988;55.776;37.544;2022-12-29T04:51:07;4.93;;;1.00;;
74503;SDS011;62988;55.776;37.544;2022-12-29T04:53:33;2.60;;;0.73;;
74503;SDS011;62988;55.776;37.544;2022-12-29T04:55:58;3.25;;;0.93;;
74503;SDS011;62988;55.776;37.544;2022-12-29T04:58:24;4.25;;;1.23;;
74503;SDS011;62988;55.776;37.544;2022-12-29T05:00:50;6.35;;;0.98;;
74503;SDS011;62988;55.776;37.544;2022-12-29T05:03:16;5.25;;;1.30;;
74503;SDS011;62988;55.776;37.544;2022-12-29T05:05:42;4.57;;;0.93;;
74503;SDS011;62988;55.776;37.544;2022-12-29T05:08:08;2.38;;;0.88;;
74503;SDS011;62988;55.776;37.544;2022-12-29T05:10:33;5.05;;;1.45;;
74503;SDS011;62988;55.776;37.544;2022-12-29T05:12:59;5.15;;;1.77;;
74503;SDS011;62988;55.776;37.544;2022-12-29T05:15:26;7.15;;;1.42;;
74503;SDS011;62988;55.776;37.544;2022-12-29T05:17:51;5.70;;;0.95;;
74503;SDS011;62988;55.776;37.544;2022-12-29T05:23:01;4.10;;;1.30;;
74503;SDS011;62988;55.776;37.544;2022-12-29T05:25:26;6.00;;;1.33;;
74503;SDS011;62988;55.776;37.544;2022-12-29T05:30:36;7.07;;;1.83;;
74503;SDS011;62988;55.776;37.544;2022-12-29T05:33:20;4.72;;;1.02;;
74503;SDS011;62988;55.776;37.544;2022-12-29T05:35:46;2.65;;;0.55;;
74503;SDS011;62988;55.776;37.544;2022-12-29T05:38:11;2.58;;;0.90;;
74503;SDS011;62988;55.776;37.544;2022-12-29T05:40:37;3.05;;;0.73;;
74503;SDS011;62988;55.776;37.544;2022-12-29T05:43:02;4.95;;;1.52;;
74503;SDS011;62988;55.776;37.544;2022-12-29T05:45:48;3.58;;;0.80;;
74503;SDS011;62988;55.776;37.544;2022-12-29T05:48:14;4.05;;;1.75;;
74503;SDS011;62988;55.776;37.544;2022-12-29T05:50:58;5.13;;;1.52;;
74503;SDS011;62988;55.776;37.544;2022-12-29T05:53:24;5.15;;;1.50;;
74503;SDS011;62988;55.776;37.544;2022-12-29T05:55:49;6.10;;;1.88;;
74503;SDS011;62988;55.776;37.544;2022-12-29T05:58:15;6.20;;;1.50;;
74503;SDS011;62988;55.776;37.544;2022-12-29T06:03:26;1.50;;;0.50;;
74503;SDS011;62988;55.776;37.544;2022-12-29T06:06:10;7.18;;;1.80;;
74503;SDS011;62988;55.776;37.544;2022-12-29T06:08:35;5.32;;;1.30;;
74503;SDS011;62988;55.776;37.544;2022-12-29T06:11:01;5.22;;;1.60;;
74503;SDS011;62988;55.776;37.544;2022-12-29T06:13:26;5.07;;;1.88;;
74503;SDS011;62988;55.776;37.544;2022-12-29T06:16:10;5.90;;;1.52;;
74503;SDS011;62988;55.776;37.544;2022-12-29T06:18:36;6.15;;;1.90;;
74503;SDS011;62988;55.776;37.544;2022-12-29T06:21:20;8.25;;;1.70;;
74503;SDS011;62988;55.776;37.544;2022-12-29T06:23:45;3.97;;;1.23;;
74503;SDS011;62988;55.776;37.544;2022-12-29T06:26:11;6.38;;;1.70;;
74503;SDS011;62988;55.776;37.544;2022-12-29T06:28:36;6.85;;;2.33;;
74503;SDS011;62988;55.776;37.544;2022-12-29T06:31:02;4.20;;;1.42;;
74503;SDS011;62988;55.776;37.544;2022-12-29T06:33:28;7.78;;;1.90;;
74503;SDS011;62988;55.776;37.544;2022-12-29T06:38:38;6.38;;;2.00;;
74503;SDS011;62988;55.776;37.544;2022-12-29T06:41:03;5.95;;;1.42;;
74503;SDS011;62988;55.776;37.544;2022-12-29T06:43:29;5.50;;;1.90;;
74503;SDS011;62988;55.776;37.544;2022-12-29T06:45:55;9.05;;;2.05;;
74503;SDS011;62988;55.776;37.544;2022-12-29T06:48:21;6.18;;;2.10;;
74503;SDS011;62988;55.776;37.544;2022-12-29T06:53:30;3.35;;;1.27;;
74503;SDS011;62988;55.776;37.544;2022-12-29T06:55:56;5.82;;;1.70;;
74503;SDS011;62988;55.776;37.544;2022-12-29T06:58:21;4.53;;;1.73;;
74503;SDS011;62988;55.776;37.544;2022-12-29T07:03:31;4.65;;;1.50;;
74503;SDS011;62988;55.776;37.544;2022-12-29T07:05:56;4.53;;;1.52;;
74503;SDS011;62988;55.776;37.544;2022-12-29T07:08:23;3.63;;;1.40;;
74503;SDS011;62988;55.776;37.544;2022-12-29T07:10:49;5.38;;;1.65;;
74503;SDS011;62988;55.776;37.544;2022-12-29T07:13:14;6.72;;;1.35;;
74503;SDS011;62988;55.776;37.544;2022-12-29T07:15:40;6.85;;;1.52;;
74503;SDS011;62988;55.776;37.544;2022-12-29T07:18:06;5.82;;;2.20;;
74503;SDS011;62988;55.776;37.544;2022-12-29T07:20:31;3.20;;;1.35;;
74503;SDS011;62988;55.776;37.544;2022-12-29T07:22:57;4.20;;;1.25;;
74503;SDS011;62988;55.776;37.544;2022-12-29T07:25:23;4.60;;;1.38;;
74503;SDS011;62988;55.776;37.544;2022-12-29T07:27:48;3.78;;;1.40;;
74503;SDS011;62988;55.776;37.544;2022-12-29T07:30:36;8.07;;;1.30;;
74503;SDS011;62988;55.776;37.544;2022-12-29T07:33:02;4.95;;;1.05;;
74503;SDS011;62988;55.776;37.544;2022-12-29T07:35:27;7.10;;;2.00;;
74503;SDS011;62988;55.776;37.544;2022-12-29T07:37:53;8.30;;;2.17;;
74503;SDS011;62988;55.776;37.544;2022-12-29T07:40:18;4.35;;;1.60;;
74503;SDS011;62988;55.776;37.544;2022-12-29T07:42:44;5.70;;;1.60;;
74503;SDS011;62988;55.776;37.544;2022-12-29T07:45:09;10.32;;;1.90;;
74503;SDS011;62988;55.776;37.544;2022-12-29T07:47:35;5.30;;;1.73;;
74503;SDS011;62988;55.776;37.544;2022-12-29T07:50:01;10.57;;;1.70;;
74503;SDS011;62988;55.776;37.544;2022-12-29T07:57:57;3.92;;;1.52;;
74503;SDS011;62988;55.776;37.544;2022-12-29T08:00:22;8.80;;;2.20;;
74503;SDS011;62988;55.776;37.544;2022-12-29T08:02:48;6.10;;;1.80;;
74503;SDS011;62988;55.776;37.544;2022-12-29T08:05:14;8.88;;;2.22;;
74503;SDS011;62988;55.776;37.544;2022-12-29T08:07:42;5.57;;;1.95;;
74503;SDS011;62988;55.776;37.544;2022-12-29T08:10:09;12.45;;;2.03;;
74503;SDS011;62988;55.776;37.544;2022-12-29T08:12:35;7.10;;;2.78;;
74503;SDS011;62988;55.776;37.544;2022-12-29T08:15:02;5.72;;;2.47;;
74503;SDS011;62988;55.776;37.544;2022-12-29T08:17:28;12.93;;;3.45;;
74503;SDS011;62988;55.776;37.544;2022-12-29T08:19:53;4.28;;;2.38;;
74503;SDS011;62988;55.776;37.544;2022-12-29T08:22:19;6.07;;;2.17;;
74503;SDS011;62988;55.776;37.544;2022-12-29T08:24:45;6.53;;;2.80;;
74503;SDS011;62988;55.776;37.544;2022-12-29T08:27:10;6.32;;;2.72;;
74503;SDS011;62988;55.776;37.544;2022-12-29T08:29:36;4.57;;;2.10;;
74503;SDS011;62988;55.776;37.544;2022-12-29T08:32:01;4.13;;;1.67;;
74503;SDS011;62988;55.776;37.544;2022-12-29T08:34:27;6.22;;;3.25;;
74503;SDS011;62988;55.776;37.544;2022-12-29T08:36:52;7.57;;;2.35;;
74503;SDS011;62988;55.776;37.544;2022-12-29T08:39:18;5.72;;;2.42;;
74503;SDS011;62988;55.776;37.544;2022-12-29T08:41:43;6.60;;;2.70;;
74503;SDS011;62988;55.776;37.544;2022-12-29T08:44:09;7.90;;;3.05;;
74503;SDS011;62988;55.776;37.544;2022-12-29T08:46:34;8.63;;;3.35;;
74503;SDS011;62988;55.776;37.544;2022-12-29T08:49:00;6.85;;;2.67;;
74503;SDS011;62988;55.776;37.544;2022-12-29T08:51:26;10.90;;;3.25;;
74503;SDS011;62988;55.776;37.544;2022-12-29T08:53:51;10.43;;;3.42;;
74503;SDS011;62988;55.776;37.544;2022-12-29T08:56:17;9.23;;;3.00;;
74503;SDS011;62988;55.776;37.544;2022-12-29T08:58:43;5.95;;;3.38;;
74503;SDS011;62988;55.776;37.544;2022-12-29T09:03:53;8.50;;;3.40;;
74503;SDS011;62988;55.776;37.544;2022-12-29T09:06:19;6.78;;;3.10;;
74503;SDS011;62988;55.776;37.544;2022-12-29T09:08:45;10.35;;;3.60;;
74503;SDS011;62988;55.776;37.544;2022-12-29T09:11:12;5.70;;;2.47;;
74503;SDS011;62988;55.776;37.544;2022-12-29T09:16:24;13.77;;;3.15;;
74503;SDS011;62988;55.776;37.544;2022-12-29T09:18:50;7.00;;;3.30;;
74503;SDS011;62988;55.776;37.544;2022-12-29T09:24:00;9.30;;;4.43;;
74503;SDS011;62988;55.776;37.544;2022-12-29T09:26:26;8.93;;;3.83;;
74503;SDS011;62988;55.776;37.544;2022-12-29T09:28:51;10.05;;;3.92;;
74503;SDS011;62988;55.776;37.544;2022-12-29T09:31:35;9.75;;;3.17;;
74503;SDS011;62988;55.776;37.544;2022-12-29T09:37:04;7.82;;;2.65;;
74503;SDS011;62988;55.776;37.544;2022-12-29T09:39:29;10.35;;;3.97;;
74503;SDS011;62988;55.776;37.544;2022-12-29T09:47:13;10.40;;;4.00;;
74503;SDS011;62988;55.776;37.544;2022-12-29T09:49:45;9.70;;;3.63;;
74503;SDS011;62988;55.776;37.544;2022-12-29T09:52:23;10.32;;;3.25;;
74503;SDS011;62988;55.776;37.544;2022-12-29T09:55:17;13.77;;;4.60;;
74503;SDS011;62988;55.776;37.544;2022-12-29T09:57:47;13.52;;;5.20;;
74503;SDS011;62988;55.776;37.544;2022-12-29T10:00:18;11.10;;;3.88;;
74503;SDS011;62988;55.776;37.544;2022-12-29T10:02:53;10.40;;;4.00;;
74503;SDS011;62988;55.776;37.544;2022-12-29T10:05:34;9.93;;;3.88;;
74503;SDS011;62988;55.776;37.544;2022-12-29T10:25:16;10.40;;;4.57;;
74503;SDS011;62988;55.776;37.544;2022-12-29T10:30:13;6.47;;;2.90;;
74503;SDS011;62988;55.776;37.544;2022-12-29T10:32:40;10.65;;;4.18;;
74503;SDS011;62988;55.776;37.544;2022-12-29T10:35:21;8.23;;;3.78;;
74503;SDS011;62988;55.776;37.544;2022-12-29T10:43:24;10.27;;;4.40;;
74503;SDS011;62988;55.776;37.544;2022-12-29T10:45:57;15.63;;;5.03;;
74503;SDS011;62988;55.776;37.544;2022-12-29T10:48:42;9.45;;;3.72;;
74503;SDS011;62988;55.776;37.544;2022-12-29T10:51:11;10.32;;;4.25;;
74503;SDS011;62988;55.776;37.544;2022-12-29T10:53:46;9.75;;;3.80;;
74503;SDS011;62988;55.776;37.544;2022-12-29T10:56:34;10.93;;;3.85;;
74503;SDS011;62988;55.776;37.544;2022-12-29T10:59:21;6.95;;;3.30;;
74503;SDS011;62988;55.776;37.544;2022-12-29T11:07:18;8.32;;;3.60;;
74503;SDS011;62988;55.776;37.544;2022-12-29T11:09:45;7.38;;;3.80;;
74503;SDS011;62988;55.776;37.544;2022-12-29T11:17:49;10.40;;;4.15;;
74503;SDS011;62988;55.776;37.544;2022-12-29T11:22:59;11.23;;;4.63;;
74503;SDS011;62988;55.776;37.544;2022-12-29T11:25:43;10.05;;;4.60;;
74503;SDS011;62988;55.776;37.544;2022-12-29T11:30:59;12.70;;;5.15;;
74503;SDS011;62988;55.776;37.544;2022-12-29T11:33:29;11.82;;;5.93;;
74503;SDS011;62988;55.776;37.544;2022-12-29T11:35:57;13.82;;;5.13;;
74503;SDS011;62988;55.776;37.544;2022-12-29T11:38:45;8.93;;;3.70;;
74503;SDS011;62988;55.776;37.544;2022-12-29T11:41:18;16.38;;;5.35;;
74503;SDS011;62988;55.776;37.544;2022-12-29T11:43:47;19.85;;;6.57;;
74503;SDS011;62988;55.776;37.544;2022-12-29T11:46:17;15.90;;;5.80;;
74503;SDS011;62988;55.776;37.544;2022-12-29T11:48:46;10.02;;;4.78;;
74503;SDS011;62988;55.776;37.544;2022-12-29T11:51:13;13.77;;;5.60;;
74503;SDS011;62988;55.776;37.544;2022-12-29T11:53:53;14.90;;;4.95;;
74503;SDS011;62988;55.776;37.544;2022-12-29T11:56:58;13.93;;;4.68;;
74503;SDS011;62988;55.776;37.544;2022-12-29T12:01:55;11.65;;;4.65;;
74503;SDS011;62988;55.776;37.544;2022-12-29T12:04:40;16.83;;;5.43;;
74503;SDS011;62988;55.776;37.544;2022-12-29T12:10:03;19.52;;;5.22;;
74503;SDS011;62988;55.776;37.544;2022-12-29T12:12:37;10.88;;;5.05;;
74503;SDS011;62988;55.776;37.544;2022-12-29T12:15:12;10.68;;;4.50;;
74503;SDS011;62988;55.776;37.544;2022-12-29T12:18:16;11.52;;;4.53;;
74503;SDS011;62988;55.776;37.544;2022-12-29T12:23:38;12.65;;;4.47;;
74503;SDS011;62988;55.776;37.544;2022-12-29T12:49:07;10.02;;;4.07;;
74503;SDS011;62988;55.776;37.544;2022-12-29T12:55:22;13.05;;;5.30;;
74503;SDS011;62988;55.776;37.544;2022-12-29T13:15:19;16.08;;;6.38;;
74503;SDS011;62988;55.776;37.544;2022-12-29T13:18:16;15.13;;;5.97;;
74503;SDS011;62988;55.776;37.544;2022-12-29T13:23:56;27.17;;;8.35;;
74503;SDS011;62988;55.776;37.544;2022-12-29T13:26:44;12.45;;;4.85;;
74503;SDS011;62988;55.776;37.544;2022-12-29T13:37:52;12.27;;;4.22;;
74503;SDS011;62988;55.776;37.544;2022-12-29T13:40:23;13.68;;;5.40;;
74503;SDS011;62988;55.776;37.544;2022-12-29T13:42:51;10.98;;;4.20;;
74503;SDS011;62988;55.776;37.544;2022-12-29T13:45:19;15.02;;;4.13;;
74503;SDS011;62988;55.776;37.544;2022-12-29T13:47:52;11.35;;;4.68;;
74503;SDS011;62988;55.776;37.544;2022-12-29T13:56:19;14.68;;;5.32;;
74503;SDS011;62988;55.776;37.544;2022-12-29T14:01:50;14.77;;;4.97;;
74503;SDS011;62988;55.776;37.544;2022-12-29T14:04:28;12.60;;;4.53;;
74503;SDS011;62988;55.776;37.544;2022-12-29T14:07:04;13.25;;;4.22;;
74503;SDS011;62988;55.776;37.544;2022-12-29T14:15:03;17.85;;;6.60;;
74503;SDS011;62988;55.776;37.544;2022-12-29T14:18:02;18.50;;;6.82;;
74503;SDS011;62988;55.776;37.544;2022-12-29T14:21:01;20.33;;;7.72;;
74503;SDS011;62988;55.776;37.544;2022-12-29T14:23:42;13.52;;;6.43;;
74503;SDS011;62988;55.776;37.544;2022-12-29T14:28:56;16.10;;;6.53;;
74503;SDS011;62988;55.776;37.544;2022-12-29T14:34:27;20.13;;;9.18;;
74503;SDS011;62988;55.776;37.544;2022-12-29T14:36:56;18.15;;;8.15;;
74503;SDS011;62988;55.776;37.544;2022-12-29T14:39:42;15.35;;;6.55;;
74503;SDS011;62988;55.776;37.544;2022-12-29T14:47:36;14.00;;;6.65;;
74503;SDS011;62988;55.776;37.544;2022-12-29T14:50:24;13.23;;;5.22;;
74503;SDS011;62988;55.776;37.544;2022-12-29T14:53:06;15.10;;;5.65;;
74503;SDS011;62988;55.776;37.544;2022-12-29T14:55:55;14.32;;;6.03;;
74503;SDS011;62988;55.776;37.544;2022-12-29T14:58:25;16.60;;;5.85;;
74503;SDS011;62988;55.776;37.544;2022-12-29T15:00:56;17.33;;;6.22;;
74503;SDS011;62988;55.776;37.544;2022-12-29T15:03:23;19.23;;;6.30;;
74503;SDS011;62988;55.776;37.544;2022-12-29T15:09:04;14.00;;;5.50;;
74503;SDS011;62988;55.776;37.544;2022-12-29T15:15:02;16.85;;;6.30;;
74503;SDS011;62988;55.776;37.544;2022-12-29T15:17:44;14.40;;;7.03;;
74503;SDS011;62988;55.776;37.544;2022-12-29T15:20:29;17.17;;;7.28;;
74503;SDS011;62988;55.776;37.544;2022-12-29T15:23:02;17.48;;;5.80;;
74503;SDS011;62988;55.776;37.544;2022-12-29T15:25:34;20.23;;;8.07;;
74503;SDS011;62988;55.776;37.544;2022-12-29T15:28:02;26.17;;;7.32;;
74503;SDS011;62988;55.776;37.544;2022-12-29T15:30:30;20.58;;;6.65;;
74503;SDS011;62988;55.776;37.544;2022-12-29T15:32:58;22.50;;;8.02;;
74503;SDS011;62988;55.776;37.544;2022-12-29T15:35:37;20.52;;;8.10;;
74503;SDS011;62988;55.776;37.544;2022-12-29T15:38:22;18.23;;;6.65;;
74503;SDS011;62988;55.776;37.544;2022-12-29T15:41:08;21.08;;;7.30;;
74503;SDS011;62988;55.776;37.544;2022-12-29T15:46:49;19.10;;;6.15;;
74503;SDS011;62988;55.776;37.544;2022-12-29T15:49:15;26.90;;;8.60;;
74503;SDS011;62988;55.776;37.544;2022-12-29T15:51:41;21.42;;;6.72;;
74503;SDS011;62988;55.776;37.544;2022-12-29T15:54:18;22.67;;;8.02;;
74503;SDS011;62988;55.776;37.544;2022-12-29T15:57:09;21.40;;;7.35;;
74503;SDS011;62988;55.776;37.544;2022-12-29T15:59:51;21.92;;;7.38;;
74503;SDS011;62988;55.776;37.544;2022-12-29T16:02:18;21.55;;;7.65;;
74503;SDS011;62988;55.776;37.544;2022-12-29T16:05:07;18.02;;;7.43;;
74503;SDS011;62988;55.776;37.544;2022-12-29T16:13:26;23.52;;;7.53;;
74503;SDS011;62988;55.776;37.544;2022-12-29T16:16:13;22.85;;;8.15;;
74503;SDS011;62988;55.776;37.544;2022-12-29T16:18:53;22.02;;;8.05;;
74503;SDS011;62988;55.776;37.544;2022-12-29T16:21:20;22.92;;;8.15;;
74503;SDS011;62988;55.776;37.544;2022-12-29T16:23:50;25.35;;;8.48;;
74503;SDS011;62988;55.776;37.544;2022-12-29T16:26:20;21.85;;;7.65;;
74503;SDS011;62988;55.776;37.544;2022-12-29T16:28:50;27.27;;;9.35;;
74503;SDS011;62988;55.776;37.544;2022-12-29T16:31:33;30.30;;;9.70;;
74503;SDS011;62988;55.776;37.544;2022-12-29T16:34:23;26.27;;;9.00;;
74503;SDS011;62988;55.776;37.544;2022-12-29T16:36:58;22.38;;;8.68;;
74503;SDS011;62988;55.776;37.544;2022-12-29T16:39:30;22.42;;;8.13;;
74503;SDS011;62988;55.776;37.544;2022-12-29T16:47:48;22.50;;;8.57;;
74503;SDS011;62988;55.776;37.544;2022-12-29T16:50:35;25.92;;;9.70;;
74503;SDS011;62988;55.776;37.544;2022-12-29T16:53:04;24.15;;;10.07;;
74503;SDS011;62988;55.776;37.544;2022-12-29T16:55:32;26.50;;;9.82;;
74503;SDS011;62988;55.776;37.544;2022-12-29T16:57:58;36.83;;;10.98;;
74503;SDS011;62988;55.776;37.544;2022-12-29T17:00:29;26.13;;;9.77;;
74503;SDS011;62988;55.776;37.544;2022-12-29T17:05:44;29.15;;;10.38;;
74503;SDS011;62988;55.776;37.544;2022-12-29T17:08:20;29.63;;;10.38;;
74503;SDS011;62988;55.776;37.544;2022-12-29T17:10:51;28.45;;;10.55;;
74503;SDS011;62988;55.776;37.544;2022-12-29T17:13:54;32.13;;;10.18;;
74503;SDS011;62988;55.776;37.544;2022-12-29T17:16:20;33.05;;;11.32;;
74503;SDS011;62988;55.776;37.544;2022-12-29T17:21:50;37.80;;;11.93;;
74503;SDS011;62988;55.776;37.544;2022-12-29T17:24:19;31.67;;;11.45;;
74503;SDS011;62988;55.776;37.544;2022-12-29T17:27:03;31.63;;;11.48;;
74503;SDS011;62988;55.776;37.544;2022-12-29T17:29:47;32.40;;;12.57;;
74503;SDS011;62988;55.776;37.544;2022-12-29T17:32:32;34.25;;;11.93;;
74503;SDS011;62988;55.776;37.544;2022-12-29T17:35:16;26.60;;;8.80;;
74503;SDS011;62988;55.776;37.544;2022-12-29T17:37:43;32.38;;;12.32;;
74503;SDS011;62988;55.776;37.544;2022-12-29T17:40:15;32.33;;;11.13;;
74503;SDS011;62988;55.776;37.544;2022-12-29T17:42:47;33.95;;;11.07;;
74503;SDS011;62988;55.776;37.544;2022-12-29T17:45:32;31.88;;;10.45;;
74503;SDS011;62988;55.776;37.544;2022-12-29T17:47:58;39.25;;;13.35;;
74503;SDS011;62988;55.776;37.544;2022-12-29T17:53:14;54.95;;;15.38;;
74503;SDS011;62988;55.776;37.544;2022-12-29T17:55:43;44.92;;;13.02;;
74503;SDS011;62988;55.776;37.544;2022-12-29T17:58:19;41.17;;;13.75;;
74503;SDS011;62988;55.776;37.544;2022-12-29T18:00:48;33.75;;;12.05;;
74503;SDS011;62988;55.776;37.544;2022-12-29T18:06:04;44.30;;;14.57;;
74503;SDS011;62988;55.776;37.544;2022-12-29T18:08:36;41.67;;;14.10;;
74503;SDS011;62988;55.776;37.544;2022-12-29T18:11:21;40.45;;;13.52;;
74503;SDS011;62988;55.776;37.544;2022-12-29T18:13:50;39.10;;;12.85;;
74503;SDS011;62988;55.776;37.544;2022-12-29T18:16:17;28.02;;;7.93;;
74503;SDS011;62988;55.776;37.544;2022-12-29T18:19:01;33.67;;;11.55;;
74503;SDS011;62988;55.776;37.544;2022-12-29T18:21:27;39.15;;;13.15;;
74503;SDS011;62988;55.776;37.544;2022-12-29T18:23:52;40.47;;;14.23;;
74503;SDS011;62988;55.776;37.544;2022-12-29T18:26:19;35.72;;;12.77;;
74503;SDS011;62988;55.776;37.544;2022-12-29T18:28:50;25.95;;;10.80;;
74503;SDS011;62988;55.776;37.544;2022-12-29T18:31:21;52.97;;;17.92;;
74503;SDS011;62988;55.776;37.544;2022-12-29T18:33:49;47.20;;;16.02;;
74503;SDS011;62988;55.776;37.544;2022-12-29T18:36:16;42.13;;;13.70;;
74503;SDS011;62988;55.776;37.544;2022-12-29T18:38:43;50.83;;;18.27;;
74503;SDS011;62988;55.776;37.544;2022-12-29T18:41:16;39.40;;;15.52;;
74503;SDS011;62988;55.776;37.544;2022-12-29T18:44:09;36.08;;;13.35;;
74503;SDS011;62988;55.776;37.544;2022-12-29T18:46:37;37.58;;;14.73;;
74503;SDS011;62988;55.776;37.544;2022-12-29T18:49:02;46.38;;;16.67;;
74503;SDS011;62988;55.776;37.544;2022-12-29T18:51:46;47.63;;;17.17;;
74503;SDS011;62988;55.776;37.544;2022-12-29T18:54:45;37.90;;;12.68;;
74503;SDS011;62988;55.776;37.544;2022-12-29T18:57:22;49.78;;;15.68;;
74503;SDS011;62988;55.776;37.544;2022-12-29T18:59:48;34.65;;;13.35;;
74503;SDS011;62988;55.776;37.544;2022-12-29T19:02:16;36.92;;;13.95;;
74503;SDS011;62988;55.776;37.544;2022-12-29T19:04:42;45.88;;;15.02;;
74503;SDS011;62988;55.776;37.544;2022-12-29T19:07:07;45.85;;;15.13;;
74503;SDS011;62988;55.776;37.544;2022-12-29T19:09:33;34.72;;;13.57;;
74503;SDS011;62988;55.776;37.544;2022-12-29T19:12:17;46.80;;;16.80;;
74503;SDS011;62988;55.776;37.544;2022-12-29T19:15:01;44.70;;;14.68;;
74503;SDS011;62988;55.776;37.544;2022-12-29T19:17:31;39.92;;;14.10;;
74503;SDS011;62988;55.776;37.544;2022-12-29T19:19:59;40.85;;;14.68;;
74503;SDS011;62988;55.776;37.544;2022-12-29T19:22:44;35.75;;;13.20;;
74503;SDS011;62988;55.776;37.544;2022-12-29T19:25:09;31.88;;;11.73;;
74503;SDS011;62988;55.776;37.544;2022-12-29T19:27:35;38.00;;;14.95;;
74503;SDS011;62988;55.776;37.544;2022-12-29T19:30:01;42.58;;;13.13;;
74503;SDS011;62988;55.776;37.544;2022-12-29T19:32:27;30.08;;;12.35;;
74503;SDS011;62988;55.776;37.544;2022-12-29T19:34:53;39.85;;;13.23;;
74503;SDS011;62988;55.776;37.544;2022-12-29T19:37:18;31.77;;;12.98;;
74503;SDS011;62988;55.776;37.544;2022-12-29T19:39:44;34.42;;;12.05;;
74503;SDS011;62988;55.776;37.544;2022-12-29T19:42:11;33.40;;;12.93;;
74503;SDS011;62988;55.776;37.544;2022-12-29T19:44:37;42.97;;;14.10;;
74503;SDS011;62988;55.776;37.544;2022-12-29T19:47:02;34.20;;;14.23;;
74503;SDS011;62988;55.776;37.544;2022-12-29T19:49:28;33.38;;;11.95;;
74503;SDS011;62988;55.776;37.544;2022-12-29T19:51:54;33.35;;;12.25;;
74503;SDS011;62988;55.776;37.544;2022-12-29T19:54:19;33.45;;;11.73;;
74503;SDS011;62988;55.776;37.544;2022-12-29T19:56:45;34.95;;;11.88;;
74503;SDS011;62988;55.776;37.544;2022-12-29T19:59:10;39.83;;;12.43;;
74503;SDS011;62988;55.776;37.544;2022-12-29T20:01:36;30.13;;;12.52;;
74503;SDS011;62988;55.776;37.544;2022-12-29T20:04:01;34.35;;;12.55;;
74503;SDS011;62988;55.776;37.544;2022-12-29T20:06:28;36.10;;;12.27;;
74503;SDS011;62988;55.776;37.544;2022-12-29T20:09:12;33.03;;;12.23;;
74503;SDS011;62988;55.776;37.544;2022-12-29T20:11:37;32.40;;;13.55;;
74503;SDS011;62988;55.776;37.544;2022-12-29T20:14:03;34.72;;;13.43;;
74503;SDS011;62988;55.776;37.544;2022-12-29T20:16:28;33.13;;;13.35;;
74503;SDS011;62988;55.776;37.544;2022-12-29T20:18:54;30.38;;;13.10;;
74503;SDS011;62988;55.776;37.544;2022-12-29T20:21:20;35.10;;;12.63;;
74503;SDS011;62988;55.776;37.544;2022-12-29T20:23:48;33.42;;;12.60;;
74503;SDS011;62988;55.776;37.544;2022-12-29T20:26:16;29.35;;;12.00;;
74503;SDS011;62988;55.776;37.544;2022-12-29T20:28:48;30.48;;;11.27;;